Peachgrove, Kentucky
Current Conditions -  °F | °C
As of 5:53 PM on Monday 24 Nov 2014 (Local Time) from KLUK Reporting Station
Broken Clouds Broken Clouds  
Wind Chill: 38°   Ceiling: 4800
Heat Index: 45°   Visibility: 10mi
Dew Point: 32°   Wind: 16mph
Humidity: 60%   Direction: 230°SW
Pressure: 29.8"   Gusts: 22mph
Location:  38.7935°N, 84.3267°W
Report Text: KLUK 242253Z 23014G19KT 10SM BKN048 07/00 A2980 RMK AO2 PK WND 23028/2155 SLP092 T00720000
Loading
Personal Weather Stations






























Interactive Weather Map New forecast layout! Learn more

10-Day Weather Forecast

Advertisements
Track Severe Weather on mobile